Time;durP1;ratioP1;P1;durP2;ratioP2;P2;SDS_P1;SDS_P2;PMS_P1;PMS_P2;Temp;Humidity;BMP_temperature;BMP_pressure;BME280_temperature;BME280_humidity;BME280_pressure;Samples;Min_cycle;Max_cycle;Signal;HPM_P1;HPM_P2
2023/03/08 00:01:16;;;;;;;9.70;7.70;;;;;;;1.88;100.00;97563.06;5012915;28;20245;-78
2023/03/08 00:03:46;;;;;;;10.47;8.03;;;;;;;1.93;100.00;97580.16;5009957;28;20201;-78
2023/03/08 00:06:16;;;;;;;12.57;8.50;;;;;;;1.98;100.00;97606.00;5016009;28;20206;-79
2023/03/08 00:08:45;;;;;;;9.77;7.60;;;;;;;1.91;100.00;97600.28;5013533;28;20195;-78
2023/03/08 00:11:13;;;;;;;11.30;8.87;;;;;;;1.73;100.00;97598.66;5015188;28;20254;-78
2023/03/08 00:13:42;;;;;;;11.40;8.07;;;;;;;1.70;100.00;97601.44;5016171;28;20186;-79
2023/03/08 00:16:12;;;;;;;10.53;7.70;;;;;;;1.87;100.00;97600.53;5014278;28;20288;-78
2023/03/08 00:18:41;;;;;;;11.03;7.77;;;;;;;1.62;100.00;97596.63;5013384;28;20411;-78
2023/03/08 00:21:13;;;;;;;9.60;7.33;;;;;;;1.85;100.00;97599.78;5015938;28;20680;-78
2023/03/08 00:23:42;;;;;;;12.80;8.50;;;;;;;1.92;100.00;97606.31;5010212;28;20628;-78
2023/03/08 00:26:11;;;;;;;10.50;7.83;;;;;;;1.88;100.00;97603.06;5015822;28;20198;-78
2023/03/08 00:28:40;;;;;;;11.47;9.30;;;;;;;1.62;100.00;97601.81;5010979;28;20201;-78
2023/03/08 00:31:11;;;;;;;11.20;8.20;;;;;;;1.83;100.00;97612.03;5015778;28;20209;-79
2023/03/08 00:33:40;;;;;;;12.27;9.00;;;;;;;1.72;100.00;97600.41;5015311;28;20233;-78
2023/03/08 00:36:14;;;;;;;13.10;10.07;;;;;;;1.59;100.00;97596.78;5015570;28;20225;-79
2023/03/08 00:38:42;;;;;;;10.77;8.00;;;;;;;1.78;100.00;97606.25;5013887;28;20198;-78
2023/03/08 00:41:11;;;;;;;10.67;8.20;;;;;;;1.67;100.00;97612.03;5009353;28;20195;-78
2023/03/08 00:43:41;;;;;;;11.33;8.33;;;;;;;1.63;100.00;97600.06;5015460;28;20253;-78
2023/03/08 00:46:09;;;;;;;11.60;8.33;;;;;;;1.63;100.00;97607.88;5015205;28;20706;-78
2023/03/08 00:48:37;;;;;;;12.53;8.83;;;;;;;1.68;100.00;97605.91;5015200;28;20205;-78
2023/03/08 00:51:06;;;;;;;12.23;8.73;;;;;;;1.83;100.00;97619.88;5013436;28;20190;-78
2023/03/08 00:53:35;;;;;;;12.80;9.17;;;;;;;1.92;100.00;97615.00;5014422;28;20252;-79
2023/03/08 00:56:04;;;;;;;11.90;9.30;;;;;;;1.65;100.00;97614.72;5013836;28;20242;-78
2023/03/08 00:58:33;;;;;;;12.73;9.17;;;;;;;1.78;100.00;97607.09;5015196;28;20194;-79
2023/03/08 01:01:02;;;;;;;13.00;9.50;;;;;;;1.63;100.00;97613.94;5015153;28;20258;-79
2023/03/08 01:03:30;;;;;;;10.87;8.17;;;;;;;1.57;100.00;97603.03;5015021;28;20209;-78
2023/03/08 01:05:59;;;;;;;11.53;8.53;;;;;;;1.76;100.00;97600.28;5015118;28;20660;-78
2023/03/08 01:08:27;;;;;;;11.30;8.60;;;;;;;1.69;100.00;97597.13;5013983;28;20272;-78
2023/03/08 01:10:59;;;;;;;11.47;8.17;;;;;;;1.75;100.00;97596.81;5012264;28;20230;-78
2023/03/08 01:13:30;;;;;;;12.50;9.07;;;;;;;1.65;100.00;97598.25;5012014;28;20258;-78
2023/03/08 01:15:59;;;;;;;11.80;8.60;;;;;;;1.77;100.00;97594.13;5008399;28;20213;-77
2023/03/08 01:18:28;;;;;;;14.97;8.77;;;;;;;1.62;100.00;97586.19;5013824;28;20249;-78
2023/03/08 01:20:58;;;;;;;11.07;8.60;;;;;;;1.72;100.00;97586.53;5014798;28;20249;-78
2023/03/08 01:23:26;;;;;;;11.83;8.10;;;;;;;1.76;100.00;97584.63;5011429;28;20245;-78
2023/03/08 01:26:00;;;;;;;12.13;9.10;;;;;;;1.70;100.00;97586.63;5014898;28;20202;-78
2023/03/08 01:28:29;;;;;;;11.67;8.87;;;;;;;1.63;100.00;97582.63;5012697;28;20194;-78
2023/03/08 01:31:01;;;;;;;13.13;9.70;;;;;;;1.50;100.00;97581.63;5014390;28;20264;-79
2023/03/08 01:33:29;;;;;;;14.03;9.93;;;;;;;1.53;100.00;97576.22;5010584;28;20195;-78
2023/03/08 01:35:58;;;;;;;12.83;9.60;;;;;;;1.57;100.00;97577.78;5014298;28;20206;-78
2023/03/08 01:38:26;;;;;;;14.77;9.57;;;;;;;1.67;100.00;97581.56;5005958;28;20222;-78
2023/03/08 01:41:00;;;;;;;13.33;9.97;;;;;;;1.58;100.00;97576.00;5010821;28;20260;-78
2023/03/08 01:43:31;;;;;;;14.93;10.87;;;;;;;1.71;100.00;97570.03;5012037;28;20194;-78
2023/03/08 01:46:07;;;;;;;14.23;10.83;;;;;;;1.69;100.00;97571.88;5012723;28;20194;-79
2023/03/08 01:48:40;;;;;;;15.10;11.13;;;;;;;1.60;100.00;97576.75;5012157;28;20194;-78
2023/03/08 01:51:13;;;;;;;16.27;11.33;;;;;;;1.54;100.00;97577.06;5011966;28;20186;-78
2023/03/08 01:53:43;;;;;;;14.80;10.40;;;;;;;1.49;100.00;97564.28;5014145;28;20207;-79
2023/03/08 01:56:18;;;;;;;15.50;11.80;;;;;;;1.45;100.00;97568.00;5013903;28;20187;-79
2023/03/08 01:58:49;;;;;;;16.80;11.67;;;;;;;1.34;100.00;97565.09;5009257;28;20214;-78
2023/03/08 02:01:19;;;;;;;16.07;11.30;;;;;;;1.46;100.00;97572.28;5015437;28;20237;-78
2023/03/08 02:03:48;;;;;;;14.70;10.17;;;;;;;1.65;100.00;97562.56;5013374;28;20469;-78
2023/03/08 02:06:18;;;;;;;17.70;11.87;;;;;;;1.53;100.00;97567.56;5011719;28;20190;-78
2023/03/08 02:08:46;;;;;;;13.73;9.30;;;;;;;1.52;100.00;97558.91;5007213;28;20248;-78
2023/03/08 02:11:19;;;;;;;15.33;9.80;;;;;;;1.39;100.00;97558.72;5014393;28;20234;-78
2023/03/08 02:13:48;;;;;;;12.53;8.03;;;;;;;1.43;100.00;97559.38;5012648;28;20649;-78
2023/03/08 02:16:18;;;;;;;9.37;7.10;;;;;;;1.64;100.00;97549.56;5013430;28;20199;-78
2023/03/08 02:18:54;;;;;;;10.33;7.20;;;;;;;1.64;100.00;97547.81;5011333;28;20225;-78
2023/03/08 02:21:26;;;;;;;9.83;7.13;;;;;;;1.54;100.00;97538.78;5011052;28;20214;-78
2023/03/08 02:23:56;;;;;;;10.20;7.90;;;;;;;1.51;100.00;97530.28;5012474;28;20277;-78
2023/03/08 02:26:26;;;;;;;10.77;7.70;;;;;;;1.68;100.00;97522.41;5011348;28;20321;-78
2023/03/08 02:28:55;;;;;;;13.27;7.80;;;;;;;1.77;100.00;97521.06;5013651;28;20665;-78
2023/03/08 02:31:23;;;;;;;11.97;7.93;;;;;;;1.87;100.00;97530.91;5010945;28;20202;-78
2023/03/08 02:33:52;;;;;;;11.20;7.50;;;;;;;1.80;100.00;97524.31;5013185;28;20194;-79
2023/03/08 02:36:20;;;;;;;11.40;8.10;;;;;;;1.76;100.00;97516.75;5006793;28;20202;-78
2023/03/08 02:38:49;;;;;;;9.93;7.60;;;;;;;1.82;100.00;97512.03;5014287;28;20242;-79
2023/03/08 02:41:19;;;;;;;10.93;7.30;;;;;;;1.97;100.00;97512.97;5012362;28;20727;-78
2023/03/08 02:43:47;;;;;;;8.70;6.60;;;;;;;1.80;100.00;97510.44;5008538;28;20241;-78
2023/03/08 02:46:15;;;;;;;10.17;6.50;;;;;;;1.87;100.00;97496.97;5013583;28;20649;-79
2023/03/08 02:48:44;;;;;;;9.43;6.30;;;;;;;1.96;100.00;97480.78;5012077;28;20194;-78
2023/03/08 02:51:13;;;;;;;9.53;6.60;;;;;;;1.90;100.00;97488.97;5013131;28;20199;-78
2023/03/08 02:53:41;;;;;;;7.07;5.53;;;;;;;1.88;100.00;97487.38;5009425;28;20260;-78
2023/03/08 02:56:09;;;;;;;8.80;6.50;;;;;;;1.74;100.00;97493.38;5010618;28;20280;-78
2023/03/08 02:58:39;;;;;;;11.13;7.80;;;;;;;1.76;100.00;97481.06;5008516;28;20222;-78
2023/03/08 03:01:11;;;;;;;10.13;7.13;;;;;;;1.60;100.00;97486.28;5013754;28;20198;-78
2023/03/08 03:03:40;;;;;;;11.13;8.00;;;;;;;1.48;100.00;97481.75;5013156;28;20198;-78
2023/03/08 03:06:13;;;;;;;10.53;7.97;;;;;;;1.36;100.00;97478.03;5011299;28;20199;-78
2023/03/08 03:08:42;;;;;;;11.93;7.97;;;;;;;1.39;100.00;97474.41;5007293;28;20194;-78
2023/03/08 03:11:14;;;;;;;11.63;8.17;;;;;;;1.60;100.00;97478.47;5007857;28;20230;-77
2023/03/08 03:13:46;;;;;;;11.50;8.27;;;;;;;1.78;100.00;97475.75;5014540;28;20222;-78
2023/03/08 03:16:16;;;;;;;9.97;7.33;;;;;;;1.95;100.00;97471.28;5008105;28;20268;-78
2023/03/08 03:18:44;;;;;;;9.97;7.57;;;;;;;1.93;100.00;97475.75;5013022;28;20225;-77
2023/03/08 03:21:14;;;;;;;11.20;8.00;;;;;;;1.86;100.00;97469.19;5004620;28;20227;-78
2023/03/08 03:23:45;;;;;;;10.43;7.53;;;;;;;1.76;100.00;97467.19;5011092;28;20209;-78
2023/03/08 03:26:16;;;;;;;10.30;7.17;;;;;;;1.82;100.00;97461.59;5010255;28;20186;-78
2023/03/08 03:28:47;;;;;;;10.70;7.50;;;;;;;1.81;100.00;97460.75;5012800;28;20275;-78
2023/03/08 03:31:18;;;;;;;8.50;5.83;;;;;;;1.78;100.00;97460.94;4990857;28;20202;-78
2023/03/08 03:33:47;;;;;;;4.50;3.47;;;;;;;1.89;100.00;97449.91;4991222;28;20249;-77
2023/03/08 03:36:17;;;;;;;4.67;3.30;;;;;;;1.87;100.00;97441.31;4987061;28;20408;-77
2023/03/08 03:38:46;;;;;;;5.50;3.60;;;;;;;1.97;100.00;97458.13;4984579;28;20218;-78
2023/03/08 03:41:17;;;;;;;6.67;4.80;;;;;;;1.97;100.00;97456.38;4990992;28;20333;-78
2023/03/08 03:43:48;;;;;;;7.73;5.50;;;;;;;1.98;100.00;97460.66;4994775;28;20203;-77
2023/03/08 03:46:18;;;;;;;8.03;6.03;;;;;;;1.93;100.00;97448.78;4993542;28;20206;-78
2023/03/08 03:48:46;;;;;;;8.67;6.37;;;;;;;2.05;100.00;97449.88;4968757;28;20194;-78
2023/03/08 03:51:17;;;;;;;9.17;6.47;;;;;;;2.12;100.00;97445.97;5011190;28;20202;-78
2023/03/08 03:53:45;;;;;;;10.07;7.70;;;;;;;2.04;100.00;97450.81;5014139;28;20194;-77
2023/03/08 03:56:16;;;;;;;10.90;7.53;;;;;;;2.05;100.00;97444.66;5014408;28;20233;-77
2023/03/08 03:58:44;;;;;;;9.87;7.23;;;;;;;2.06;100.00;97441.13;5016151;28;20214;-77
2023/03/08 04:01:16;;;;;;;11.53;8.37;;;;;;;2.20;100.00;97439.38;5011775;28;20194;-77
2023/03/08 04:03:44;;;;;;;10.30;7.60;;;;;;;2.18;100.00;97435.16;5012350;28;20203;-77
2023/03/08 04:06:15;;;;;;;10.60;8.07;;;;;;;2.05;100.00;97434.22;5015300;28;20198;-77
2023/03/08 04:08:43;;;;;;;11.67;8.50;;;;;;;2.03;100.00;97433.44;5009911;28;20326;-78
2023/03/08 04:11:14;;;;;;;11.47;8.77;;;;;;;2.15;100.00;97430.13;5014383;28;20337;-77
2023/03/08 04:13:43;;;;;;;12.17;8.40;;;;;;;2.23;100.00;97420.94;5016839;28;20198;-77
2023/03/08 04:16:12;;;;;;;10.73;8.10;;;;;;;2.22;100.00;97423.59;5015736;28;20276;-78
2023/03/08 04:18:44;;;;;;;8.40;6.90;;;;;;;2.19;100.00;97414.19;4952107;29;20299;-77
2023/03/08 04:21:13;;;;;;;8.53;6.37;;;;;;;1.97;100.00;97414.59;4955401;29;20193;-77
2023/03/08 04:23:42;;;;;;;9.03;6.07;;;;;;;1.96;100.00;97406.88;4951664;29;20201;-77
2023/03/08 04:26:12;;;;;;;6.30;5.00;;;;;;;2.05;100.00;97408.09;4955657;29;20189;-77
2023/03/08 04:28:40;;;;;;;5.37;3.63;;;;;;;1.89;100.00;97408.97;4953981;29;20204;-77
2023/03/08 04:31:13;;;;;;;5.60;3.87;;;;;;;1.87;100.00;97408.22;4955126;29;20204;-77
2023/03/08 04:33:43;;;;;;;5.67;3.73;;;;;;;1.76;100.00;97396.72;4922017;29;20256;-77
2023/03/08 04:36:13;;;;;;;5.57;3.90;;;;;;;1.89;100.00;97400.31;4948668;29;20200;-77
2023/03/08 04:38:41;;;;;;;6.67;3.70;;;;;;;1.82;100.00;97401.56;4953861;29;20276;-77
2023/03/08 04:41:10;;;;;;;5.30;3.80;;;;;;;1.89;100.00;97397.69;4945350;29;20258;-77
2023/03/08 04:43:39;;;;;;;5.10;3.93;;;;;;;1.89;100.00;97398.53;4990575;28;20243;-77
2023/03/08 04:46:08;;;;;;;4.20;3.43;;;;;;;1.71;100.00;97399.56;5013273;28;20198;-77
2023/03/08 04:48:37;;;;;;;6.47;3.60;;;;;;;1.82;100.00;97402.41;5007324;28;20195;-77
2023/03/08 04:51:08;;;;;;;5.73;4.37;;;;;;;1.76;100.00;97399.34;5004982;28;20228;-76
2023/03/08 04:53:37;;;;;;;8.03;5.00;;;;;;;1.77;100.00;97399.25;5006161;28;20210;-77
2023/03/08 04:56:08;;;;;;;8.00;5.43;;;;;;;1.92;100.00;97389.69;5009050;28;20213;-77
2023/03/08 04:58:39;;;;;;;9.37;6.53;;;;;;;1.83;100.00;97390.22;5004402;28;20330;-77
2023/03/08 05:01:12;;;;;;;10.53;7.50;;;;;;;1.84;100.00;97397.13;4981737;28;20201;-77
2023/03/08 05:03:43;;;;;;;10.90;7.87;;;;;;;1.87;100.00;97391.72;5009761;28;20264;-76
2023/03/08 05:06:14;;;;;;;13.70;9.47;;;;;;;1.81;100.00;97376.41;5013494;28;20241;-76
2023/03/08 05:08:42;;;;;;;18.57;12.00;;;;;;;1.71;100.00;97379.53;5008722;28;20257;-77
2023/03/08 05:11:16;;;;;;;15.13;10.57;;;;;;;1.92;100.00;97381.84;5014744;28;20237;-77
2023/03/08 05:13:45;;;;;;;14.03;9.53;;;;;;;1.78;100.00;97369.59;5012350;28;20210;-77
2023/03/08 05:16:14;;;;;;;9.90;7.33;;;;;;;1.75;100.00;97355.91;5013425;28;20201;-77
2023/03/08 05:18:43;;;;;;;10.63;7.63;;;;;;;1.72;100.00;97357.75;5009613;28;20218;-76
2023/03/08 05:21:16;;;;;;;23.03;8.20;;;;;;;1.75;100.00;97367.19;5012101;28;20203;-76
2023/03/08 05:23:45;;;;;;;15.87;8.20;;;;;;;1.72;100.00;97357.75;5012142;28;20202;-76
2023/03/08 05:26:15;;;;;;;14.00;8.90;;;;;;;1.69;100.00;97355.31;5009735;28;20198;-77
2023/03/08 05:28:45;;;;;;;14.07;9.63;;;;;;;1.71;100.00;97356.06;4985303;28;20203;-77
2023/03/08 05:31:15;;;;;;;13.07;8.17;;;;;;;1.78;100.00;97340.91;4991359;28;20207;-76
2023/03/08 05:33:46;;;;;;;11.97;8.03;;;;;;;1.78;100.00;97334.84;4990329;28;20237;-77
2023/03/08 05:36:16;;;;;;;12.40;8.33;;;;;;;1.91;100.00;97341.00;4993551;28;20187;-76
2023/03/08 05:38:45;;;;;;;10.93;8.13;;;;;;;1.70;100.00;97337.88;4958719;28;20202;-77
2023/03/08 05:41:15;;;;;;;10.97;7.90;;;;;;;1.59;100.00;97338.50;4990027;28;20197;-76
2023/03/08 05:43:44;;;;;;;10.37;7.40;;;;;;;1.61;100.00;97333.19;4951179;29;20192;-77
2023/03/08 05:46:14;;;;;;;10.80;8.00;;;;;;;1.65;100.00;97330.34;4954770;28;20203;-77
2023/03/08 05:48:44;;;;;;;9.43;6.90;;;;;;;1.77;100.00;97318.34;4992342;28;20230;-76
2023/03/08 05:51:16;;;;;;;9.37;6.87;;;;;;;1.70;100.00;97322.22;4987193;28;20200;-77
2023/03/08 05:53:46;;;;;;;8.87;6.50;;;;;;;1.70;100.00;97330.06;4988992;28;20201;-76
2023/03/08 05:56:16;;;;;;;12.10;7.40;;;;;;;1.71;100.00;97316.09;4984502;28;20191;-77
2023/03/08 05:58:45;;;;;;;10.73;7.20;;;;;;;1.82;100.00;97312.84;4988968;28;20203;-77
2023/03/08 06:01:17;;;;;;;12.47;8.20;;;;;;;1.53;100.00;97323.19;4996920;28;20289;-77
2023/03/08 06:03:46;;;;;;;11.67;8.10;;;;;;;1.63;100.00;97316.53;5013194;28;20265;-77
2023/03/08 06:06:16;;;;;;;11.03;7.77;;;;;;;1.54;100.00;97322.25;4995571;28;20198;-77
2023/03/08 06:08:45;;;;;;;13.30;8.50;;;;;;;1.51;100.00;97312.03;5008006;28;20190;-76
2023/03/08 06:11:14;;;;;;;13.17;8.97;;;;;;;1.63;100.00;97306.09;5016839;28;20222;-77
2023/03/08 06:13:42;;;;;;;12.43;9.23;;;;;;;1.49;100.00;97307.81;5013373;28;20206;-77
2023/03/08 06:16:11;;;;;;;13.47;8.83;;;;;;;1.53;100.00;97309.31;5011843;28;20202;-76
2023/03/08 06:18:41;;;;;;;12.90;9.17;;;;;;;1.67;100.00;97299.78;5009557;28;20261;-77
2023/03/08 06:21:12;;;;;;;11.50;7.60;;;;;;;1.70;100.00;97293.53;5013494;28;20685;-76
2023/03/08 06:23:43;;;;;;;13.27;8.27;;;;;;;1.61;100.00;97294.91;5012205;28;20202;-77
2023/03/08 06:26:13;;;;;;;11.80;8.07;;;;;;;1.51;100.00;97301.59;5014393;28;20209;-76
2023/03/08 06:28:41;;;;;;;10.40;7.30;;;;;;;1.54;100.00;97298.78;5013081;28;20252;-76
2023/03/08 06:31:14;;;;;;;10.27;7.23;;;;;;;1.56;100.00;97293.50;5009520;28;20202;-76
2023/03/08 06:33:43;;;;;;;9.70;6.73;;;;;;;1.63;100.00;97305.25;4979064;28;20194;-76
2023/03/08 06:36:14;;;;;;;7.70;5.93;;;;;;;1.56;100.00;97302.19;5011820;28;20328;-76
2023/03/08 06:38:44;;;;;;;7.93;5.50;;;;;;;1.52;100.00;97297.22;5011871;28;20225;-76
2023/03/08 06:41:14;;;;;;;8.03;5.60;;;;;;;1.66;100.00;97292.03;5013615;28;20219;-77
2023/03/08 06:43:42;;;;;;;7.67;5.63;;;;;;;1.66;100.00;97294.66;5012821;28;20205;-77
2023/03/08 06:46:13;;;;;;;7.37;5.70;;;;;;;1.59;100.00;97273.28;5008098;28;20281;-77
2023/03/08 06:48:41;;;;;;;9.97;6.57;;;;;;;1.67;100.00;97286.72;5010124;28;20225;-77
2023/03/08 06:51:10;;;;;;;8.80;6.27;;;;;;;1.62;100.00;97274.88;5010322;28;20198;-76
2023/03/08 06:53:38;;;;;;;9.77;6.87;;;;;;;1.65;100.00;97269.50;5006799;28;20248;-76
2023/03/08 06:56:12;;;;;;;10.90;7.07;;;;;;;1.69;100.00;97269.22;5013828;28;20256;-76
2023/03/08 06:58:40;;;;;;;10.83;7.10;;;;;;;1.61;100.00;97263.59;5012691;28;20223;-76
2023/03/08 07:01:09;;;;;;;10.67;7.37;;;;;;;1.62;100.00;97265.28;5010799;28;20221;-78
2023/03/08 07:03:38;;;;;;;10.23;7.63;;;;;;;1.57;100.00;97263.88;5009234;28;20202;-76
2023/03/08 07:06:08;;;;;;;10.20;7.07;;;;;;;1.58;100.00;97258.56;5007776;28;20195;-76
2023/03/08 07:08:38;;;;;;;9.57;6.83;;;;;;;1.76;100.00;97248.81;5012400;28;20249;-76
2023/03/08 07:11:08;;;;;;;9.90;6.73;;;;;;;1.47;100.00;97240.09;5012676;28;20229;-76
2023/03/08 07:13:37;;;;;;;10.87;6.90;;;;;;;1.38;100.00;97245.84;5013194;28;20650;-76
2023/03/08 07:16:08;;;;;;;9.47;6.37;;;;;;;1.33;100.00;97245.25;5009895;28;20194;-76
2023/03/08 07:18:44;;;;;;;9.80;7.00;;;;;;;1.52;100.00;97247.66;5012173;28;20214;-76
2023/03/08 07:21:16;;;;;;;10.63;7.30;;;;;;;1.55;100.00;97235.28;5011006;28;20214;-76
2023/03/08 07:23:45;;;;;;;10.97;7.53;;;;;;;1.53;100.00;97234.50;5011022;28;20194;-76
2023/03/08 07:26:14;;;;;;;11.47;8.20;;;;;;;1.44;100.00;97233.28;5005260;28;20253;-76
2023/03/08 07:28:43;;;;;;;13.67;8.43;;;;;;;1.54;100.00;97233.56;5010459;28;20285;-76
2023/03/08 07:31:11;;;;;;;13.83;8.73;;;;;;;1.51;100.00;97220.72;5012369;28;20190;-78
2023/03/08 07:33:40;;;;;;;13.50;9.20;;;;;;;1.47;100.00;97218.41;5009690;28;20186;-76
2023/03/08 07:36:08;;;;;;;14.57;9.50;;;;;;;1.40;100.00;97210.94;5009394;28;20256;-78
2023/03/08 07:38:36;;;;;;;15.67;10.03;;;;;;;1.40;100.00;97210.09;5009230;28;20254;-78
2023/03/08 07:41:06;;;;;;;17.40;10.93;;;;;;;1.46;100.00;97214.97;5011020;28;20218;-77
2023/03/08 07:43:36;;;;;;;14.17;9.90;;;;;;;1.54;100.00;97210.09;5012203;28;20649;-78
2023/03/08 07:46:04;;;;;;;16.40;10.83;;;;;;;1.56;100.00;97210.03;5004516;28;20248;-76
2023/03/08 07:48:33;;;;;;;16.20;10.47;;;;;;;1.48;100.00;97209.66;5009395;28;20195;-76
2023/03/08 07:51:05;;;;;;;16.87;10.93;;;;;;;1.40;100.00;97204.88;5005456;28;20202;-76
2023/03/08 07:53:34;;;;;;;17.60;10.40;;;;;;;1.54;100.00;97212.72;5001731;28;20228;-76
2023/03/08 07:56:06;;;;;;;16.53;10.87;;;;;;;1.51;100.00;97202.47;5009780;28;20195;-76
2023/03/08 07:58:36;;;;;;;17.17;10.73;;;;;;;1.55;100.00;97200.53;5006187;28;20218;-76
2023/03/08 08:01:09;;;;;;;17.37;11.57;;;;;;;1.55;100.00;97198.75;5004749;28;20214;-76
2023/03/08 08:03:37;;;;;;;18.17;12.20;;;;;;;1.48;100.00;97186.16;5007250;28;20244;-76
2023/03/08 08:06:07;;;;;;;19.00;12.80;;;;;;;1.48;100.00;97173.97;5005130;28;20209;-76
2023/03/08 08:08:35;;;;;;;20.93;13.30;;;;;;;1.51;100.00;97165.13;5001105;28;20199;-76
2023/03/08 08:11:10;;;;;;;19.17;12.93;;;;;;;1.60;100.00;97162.78;5011539;28;20229;-76
2023/03/08 08:13:42;;;;;;;20.67;13.37;;;;;;;1.68;100.00;97157.97;5012045;28;20735;-76
2023/03/08 08:16:11;;;;;;;19.90;12.93;;;;;;;1.67;100.00;97158.06;5011895;28;20277;-76
2023/03/08 08:18:42;;;;;;;22.03;14.43;;;;;;;1.72;100.00;97150.78;5009987;28;20241;-75
2023/03/08 08:21:15;;;;;;;21.87;15.30;;;;;;;1.69;100.00;97141.38;5012166;28;20234;-77
2023/03/08 08:23:45;;;;;;;25.07;16.10;;;;;;;1.61;100.00;97145.38;5010491;28;20265;-75
2023/03/08 08:26:15;;;;;;;26.67;17.23;;;;;;;1.70;100.00;97142.19;5008065;28;20195;-75
2023/03/08 08:28:48;;;;;;;24.67;17.57;;;;;;;1.84;100.00;97142.22;5016064;28;20195;-76
2023/03/08 08:31:20;;;;;;;26.10;16.13;;;;;;;1.87;100.00;97142.03;5015021;28;20198;-78
2023/03/08 08:33:48;;;;;;;23.27;15.77;;;;;;;1.65;100.00;97137.28;5014065;28;20186;-76
2023/03/08 08:36:18;;;;;;;23.80;15.97;;;;;;;1.71;100.00;97129.06;4996904;28;20225;-76
2023/03/08 08:38:47;;;;;;;24.83;16.93;;;;;;;1.50;100.00;97119.09;5009044;28;20197;-76
2023/03/08 08:41:18;;;;;;;22.87;15.07;;;;;;;1.69;100.00;97120.50;5010479;28;20218;-76
2023/03/08 08:43:49;;;;;;;24.83;16.13;;;;;;;1.73;100.00;97134.19;5012947;28;20191;-76
2023/03/08 08:46:21;;;;;;;21.20;15.17;;;;;;;1.75;100.00;97121.91;5012876;28;20190;-77
2023/03/08 08:48:49;;;;;;;23.37;15.03;;;;;;;1.66;100.00;97130.28;4978100;28;20198;-76
2023/03/08 08:51:18;;;;;;;24.40;16.13;;;;;;;1.76;100.00;97120.13;5010310;28;20206;-76
2023/03/08 08:53:47;;;;;;;23.00;14.33;;;;;;;1.68;100.00;97118.81;4959381;28;20288;-77
2023/03/08 08:56:18;;;;;;;21.90;15.30;;;;;;;1.82;100.00;97104.06;4972416;28;20199;-76
2023/03/08 08:58:56;;;;;;;21.53;14.30;;;;;;;1.77;100.00;97078.28;4993107;28;20203;-76
2023/03/08 09:01:29;;;;;;;19.43;12.90;;;;;;;1.75;100.00;97082.75;4993058;28;20223;-77
2023/03/08 09:03:58;;;;;;;18.87;12.90;;;;;;;1.76;100.00;97073.16;4990417;28;20591;-76
2023/03/08 09:06:29;;;;;;;17.77;12.73;;;;;;;1.77;100.00;97067.84;4993176;28;20203;-77
2023/03/08 09:08:59;;;;;;;21.93;12.07;;;;;;;1.84;100.00;97063.09;4990502;28;20201;-77
2023/03/08 09:11:28;;;;;;;16.20;11.27;;;;;;;1.89;100.00;97063.63;4988710;28;20231;-77
2023/03/08 09:13:59;;;;;;;17.00;11.77;;;;;;;1.92;100.00;97051.22;4998026;28;20233;-77
2023/03/08 09:16:30;;;;;;;16.97;12.00;;;;;;;1.76;100.00;97049.69;5015692;28;20245;-77
2023/03/08 09:19:00;;;;;;;15.73;12.17;;;;;;;1.75;100.00;97041.00;5011628;28;20322;-76
2023/03/08 09:21:29;;;;;;;15.10;11.10;;;;;;;1.89;100.00;97038.34;5015525;28;20225;-76
2023/03/08 09:24:01;;;;;;;15.63;10.40;;;;;;;1.93;100.00;97037.25;5013478;28;20214;-76
2023/03/08 09:26:30;;;;;;;15.70;11.50;;;;;;;1.87;100.00;97035.00;5012555;28;20210;-76
2023/03/08 09:29:04;;;;;;;14.87;10.60;;;;;;;1.97;100.00;97030.06;5014431;28;20194;-76
2023/03/08 09:31:36;;;;;;;16.30;10.73;;;;;;;1.89;100.00;97027.09;5014494;28;20672;-76
2023/03/08 09:34:07;;;;;;;17.37;12.20;;;;;;;2.00;100.00;97016.78;5014379;28;20226;-76
2023/03/08 09:36:39;;;;;;;15.83;12.23;;;;;;;2.13;100.00;97014.25;5015072;28;20290;-76
2023/03/08 09:39:08;;;;;;;16.73;11.50;;;;;;;2.14;100.00;97008.94;5009506;28;20194;-79
2023/03/08 09:42:00;;;;;;;16.33;11.67;;;;;;;1.97;100.00;97002.19;5013118;28;20273;-76
2023/03/08 09:45:05;;;;;;;15.83;10.97;;;;;;;2.00;100.00;97009.81;5011665;28;20210;-76
2023/03/08 09:47:43;;;;;;;16.63;10.83;;;;;;;2.05;100.00;97006.06;5003202;28;20224;-77
2023/03/08 09:50:27;;;;;;;16.27;11.67;;;;;;;2.12;100.00;97008.16;5013712;28;20190;-77
2023/03/08 09:53:00;;;;;;;16.60;11.90;;;;;;;2.12;100.00;97004.72;5007272;28;20202;-81
2023/03/08 09:55:39;;;;;;;17.00;12.77;;;;;;;2.11;100.00;97003.03;5010447;28;20190;-77
2023/03/08 09:58:20;;;;;;;17.50;13.07;;;;;;;1.91;100.00;97010.38;5014092;28;20194;-78
2023/03/08 10:00:57;;;;;;;17.07;12.00;;;;;;;1.94;100.00;96994.56;5013772;28;20237;-78
2023/03/08 10:03:50;;;;;;;15.40;11.87;;;;;;;2.11;100.00;97005.66;5014157;28;20218;-78
2023/03/08 10:06:27;;;;;;;19.23;11.97;;;;;;;2.12;100.00;96995.09;5013832;28;20186;-78
2023/03/08 10:09:02;;;;;;;17.47;11.67;;;;;;;2.28;100.00;96985.34;5008396;28;20372;-78
2023/03/08 10:11:38;;;;;;;14.43;10.63;;;;;;;2.34;100.00;96978.91;5008250;28;20226;-78
2023/03/08 10:14:18;;;;;;;16.73;10.70;;;;;;;2.41;100.00;96976.69;5011756;28;20239;-78
2023/03/08 10:16:53;;;;;;;14.10;10.40;;;;;;;2.25;100.00;96972.50;5005144;28;20310;-78
2023/03/08 10:19:30;;;;;;;13.93;9.40;;;;;;;2.33;100.00;96966.78;5008190;28;20201;-78
2023/03/08 10:22:03;;;;;;;14.43;9.80;;;;;;;2.22;100.00;96967.50;5009747;28;20214;-78
2023/03/08 10:24:42;;;;;;;12.03;8.77;;;;;;;2.22;100.00;96964.88;5005831;28;20201;-78
2023/03/08 10:27:20;;;;;;;11.77;8.50;;;;;;;2.24;100.00;96947.34;5004416;28;20202;-78
2023/03/08 10:29:50;;;;;;;11.97;8.90;;;;;;;2.30;100.00;96953.91;5009828;28;20204;-78
2023/03/08 10:32:20;;;;;;;11.90;9.00;;;;;;;2.01;100.00;96948.81;4975049;28;20197;-78
2023/03/08 10:34:50;;;;;;;13.43;9.77;;;;;;;2.23;100.00;96947.44;5008268;28;20197;-78
2023/03/08 10:37:24;;;;;;;12.63;9.00;;;;;;;2.34;100.00;96942.34;5013264;28;20664;-78
2023/03/08 10:39:58;;;;;;;12.93;9.03;;;;;;;2.31;100.00;96939.91;5012759;28;20270;-78
2023/03/08 10:42:28;;;;;;;13.13;9.80;;;;;;;2.33;100.00;96940.66;5013109;28;20245;-78
2023/03/08 10:45:00;;;;;;;13.37;9.87;;;;;;;2.29;100.00;96944.41;5008988;28;20249;-78
2023/03/08 10:47:31;;;;;;;13.87;10.33;;;;;;;2.24;100.00;96936.88;5012789;28;20569;-78
2023/03/08 10:50:06;;;;;;;15.63;10.53;;;;;;;2.11;100.00;96935.16;5009023;28;20210;-78
2023/03/08 10:52:35;;;;;;;17.27;11.70;;;;;;;2.16;100.00;96938.31;5008782;28;20197;-78
2023/03/08 10:55:06;;;;;;;17.60;12.70;;;;;;;2.21;100.00;96937.06;4974948;28;20202;-77
2023/03/08 10:57:35;;;;;;;15.93;12.30;;;;;;;2.19;100.00;96935.50;4979151;28;20278;-78
2023/03/08 11:00:12;;;;;;;16.00;11.50;;;;;;;2.22;100.00;96933.53;5005652;28;20270;-78
2023/03/08 11:02:42;;;;;;;14.70;11.30;;;;;;;2.46;100.00;96930.22;4988538;28;20262;-78
2023/03/08 11:05:19;;;;;;;16.23;11.67;;;;;;;2.32;100.00;96922.47;4909321;29;20206;-78
2023/03/08 11:07:54;;;;;;;15.57;12.33;;;;;;;2.03;100.00;96911.34;4914278;29;20675;-78
2023/03/08 11:10:26;;;;;;;14.90;11.23;;;;;;;2.27;100.00;96913.16;4912870;29;20252;-78
2023/03/08 11:13:02;;;;;;;15.73;11.70;;;;;;;2.33;100.00;96911.09;4910984;29;20280;-78
2023/03/08 11:15:35;;;;;;;16.90;12.20;;;;;;;2.06;100.00;96909.38;4914316;29;20201;-78
2023/03/08 11:18:18;;;;;;;15.20;11.37;;;;;;;2.24;100.00;96917.78;4912878;29;20200;-79
2023/03/08 11:20:52;;;;;;;19.00;13.37;;;;;;;2.30;100.00;96907.72;4928742;29;20208;-79
2023/03/08 11:23:24;;;;;;;14.63;11.70;;;;;;;2.35;100.00;96899.59;4973655;28;20214;-78
2023/03/08 11:25:59;;;;;;;14.83;11.93;;;;;;;2.29;100.00;96887.78;5012375;28;20195;-78
2023/03/08 11:28:52;;;;;;;15.60;11.33;;;;;;;2.31;100.00;96892.91;5011488;28;20197;-78
2023/03/08 11:31:31;;;;;;;16.33;11.87;;;;;;;2.11;100.00;96886.41;5007535;28;20237;-78
2023/03/08 11:34:35;;;;;;;17.43;12.20;;;;;;;2.30;100.00;96894.69;5009441;28;20277;-79
2023/03/08 11:37:13;;;;;;;15.80;11.37;;;;;;;2.34;100.00;96886.66;5013920;28;20671;-78
2023/03/08 11:39:46;;;;;;;16.80;11.07;;;;;;;2.42;100.00;96874.75;5007496;28;20198;-79
2023/03/08 11:42:25;;;;;;;17.40;11.70;;;;;;;2.44;100.00;96875.47;5004156;28;20226;-79